createdAt,value
2018-06-15T00:00:20.949Z,3.80
2018-06-15T00:01:20.839Z,3.70
2018-06-15T00:03:14.089Z,3.80
2018-06-15T00:04:13.993Z,3.50
2018-06-15T00:06:06.836Z,3.20
2018-06-15T00:07:06.815Z,3.40
2018-06-15T00:09:00.575Z,3.40
2018-06-15T00:10:00.447Z,3.40
2018-06-15T00:11:54.698Z,3.20
2018-06-15T00:12:54.601Z,3.20
2018-06-15T00:14:47.441Z,3.20
2018-06-15T00:15:47.331Z,3.10
2018-06-15T00:17:40.240Z,3.30
2018-06-15T00:18:40.094Z,3.40
2018-06-15T00:20:32.925Z,3.40
2018-06-15T00:21:32.862Z,3.20
2018-06-15T00:23:25.693Z,3.30
2018-06-15T00:24:25.589Z,3.50
2018-06-15T00:26:19.376Z,2.90
2018-06-15T00:27:19.310Z,3.10
2018-06-15T00:29:12.358Z,3.10
2018-06-15T00:30:12.016Z,3.00
2018-06-15T00:32:05.420Z,3.00
2018-06-15T00:33:04.759Z,3.10
2018-06-15T00:34:57.619Z,3.30
2018-06-15T00:35:57.503Z,2.90
2018-06-15T00:37:50.269Z,2.90
2018-06-15T00:38:50.153Z,3.40
2018-06-15T00:40:43.013Z,3.30
2018-06-15T00:41:42.893Z,3.10
2018-06-15T00:43:35.639Z,3.30
2018-06-15T00:44:35.545Z,3.10
2018-06-15T00:46:28.407Z,3.10
2018-06-15T00:47:28.295Z,3.30
2018-06-15T00:49:21.132Z,3.70
2018-06-15T00:50:21.050Z,3.40
2018-06-15T00:52:13.813Z,3.50
2018-06-15T00:53:13.703Z,3.60
2018-06-15T00:55:06.533Z,3.30
2018-06-15T00:56:06.443Z,3.50
2018-06-15T00:57:59.308Z,3.50
2018-06-15T00:58:59.188Z,3.50
2018-06-15T01:00:51.932Z,3.50
2018-06-15T01:01:51.840Z,3.60
2018-06-15T01:03:44.707Z,4.00
2018-06-15T01:04:44.602Z,3.70
2018-06-15T01:06:40.453Z,3.90
2018-06-15T01:07:40.306Z,3.60
2018-06-15T01:09:33.217Z,3.70
2018-06-15T01:10:33.101Z,3.50
2018-06-15T01:12:26.740Z,3.60
2018-06-15T01:13:26.665Z,3.80
2018-06-15T01:15:19.479Z,3.70
2018-06-15T01:16:19.513Z,3.60
2018-06-15T01:18:12.281Z,3.80
2018-06-15T01:19:12.261Z,3.80
2018-06-15T01:21:05.010Z,4.10
2018-06-15T01:22:04.872Z,3.70
2018-06-15T01:23:57.750Z,4.10
2018-06-15T01:24:57.633Z,4.20
2018-06-15T01:26:50.483Z,4.10
2018-06-15T01:27:50.368Z,4.20
2018-06-15T01:29:43.209Z,4.10
2018-06-15T01:30:43.125Z,4.10
2018-06-15T01:32:35.880Z,3.70
2018-06-15T01:33:35.778Z,4.00
2018-06-15T01:35:28.611Z,4.00
2018-06-15T01:36:28.514Z,4.30
2018-06-15T01:38:21.381Z,4.20
2018-06-15T01:39:21.287Z,4.10
2018-06-15T01:41:14.142Z,4.60
2018-06-15T01:42:14.030Z,4.20
2018-06-15T01:44:06.899Z,4.50
2018-06-15T01:45:06.769Z,4.20
2018-06-15T01:46:59.632Z,4.50
2018-06-15T01:47:59.514Z,4.70
2018-06-15T01:49:52.369Z,4.70
2018-06-15T01:50:52.288Z,4.50
2018-06-15T01:52:45.119Z,4.40
2018-06-15T01:53:45.051Z,4.80
2018-06-15T01:55:37.865Z,4.50
2018-06-15T01:56:37.769Z,4.30
2018-06-15T01:58:30.531Z,4.60
2018-06-15T01:59:30.416Z,4.70
2018-06-15T02:01:23.253Z,4.70
2018-06-15T02:02:23.061Z,4.90
2018-06-15T02:04:15.907Z,4.60
2018-06-15T02:05:15.809Z,4.90
2018-06-15T02:07:08.676Z,4.90
2018-06-15T02:08:08.584Z,4.90
2018-06-15T02:10:01.579Z,4.90
2018-06-15T02:11:01.333Z,4.60
2018-06-15T02:12:54.159Z,4.50
2018-06-15T02:13:54.071Z,4.80
2018-06-15T02:15:47.463Z,5.50
2018-06-15T02:16:46.815Z,5.40
2018-06-15T02:18:39.675Z,5.50
2018-06-15T02:19:39.579Z,6.00
2018-06-15T02:21:32.842Z,5.90
2018-06-15T02:22:32.711Z,5.60
2018-06-15T02:24:25.588Z,6.10
2018-06-15T02:25:25.474Z,6.10
2018-06-15T02:27:18.324Z,6.60
2018-06-15T02:28:18.232Z,6.00
2018-06-15T02:30:11.101Z,6.10
2018-06-15T02:31:10.965Z,6.00
2018-06-15T02:33:03.828Z,6.20
2018-06-15T02:34:03.719Z,6.40
2018-06-15T02:35:56.585Z,6.50
2018-06-15T02:36:56.501Z,6.30
2018-06-15T02:38:49.331Z,6.40
2018-06-15T02:39:49.216Z,6.60
2018-06-15T02:41:42.079Z,6.70
2018-06-15T02:42:41.962Z,6.50
2018-06-15T02:44:34.704Z,6.20
2018-06-15T02:45:34.667Z,6.50
2018-06-15T02:47:27.484Z,6.80
2018-06-15T02:48:27.364Z,7.30
2018-06-15T02:50:20.097Z,7.00
2018-06-15T02:51:20.016Z,7.20
2018-06-15T02:53:13.398Z,6.80
2018-06-15T02:54:12.763Z,7.70
2018-06-15T02:56:05.613Z,7.90
2018-06-15T02:57:05.503Z,7.00
2018-06-15T02:58:58.397Z,7.80
2018-06-15T02:59:58.255Z,8.00
2018-06-15T03:01:51.110Z,7.90
2018-06-15T03:02:51.005Z,7.80
2018-06-15T03:04:44.366Z,7.90
2018-06-15T03:05:43.749Z,7.50
2018-06-15T03:07:36.609Z,7.50
2018-06-15T03:08:36.511Z,7.80
2018-06-15T03:10:29.379Z,7.90
2018-06-15T03:11:29.279Z,7.70
2018-06-15T03:13:22.114Z,7.40
2018-06-15T03:14:22.015Z,7.80
2018-06-15T03:16:14.859Z,7.70
2018-06-15T03:17:14.774Z,7.60
2018-06-15T03:19:07.618Z,8.20
2018-06-15T03:20:07.504Z,8.20
2018-06-15T03:22:00.350Z,9.00
2018-06-15T03:23:00.276Z,8.70
2018-06-15T03:24:53.107Z,9.60
2018-06-15T03:25:52.999Z,10.20
2018-06-15T03:27:45.902Z,10.10
2018-06-15T03:28:45.748Z,10.70
2018-06-15T03:30:38.631Z,11.20
2018-06-15T03:31:38.502Z,11.30
2018-06-15T03:33:31.367Z,11.60
2018-06-15T03:34:31.263Z,11.60
2018-06-15T03:36:24.133Z,12.10
2018-06-15T03:37:24.009Z,12.30
2018-06-15T03:39:16.866Z,12.70
2018-06-15T03:40:16.745Z,12.00
2018-06-15T03:42:09.495Z,12.40
2018-06-15T03:43:09.405Z,12.10
2018-06-15T03:45:02.147Z,13.20
2018-06-15T03:46:02.059Z,12.10
2018-06-15T03:47:54.947Z,12.80
2018-06-15T03:48:54.692Z,13.10
2018-06-15T03:50:47.556Z,12.70
2018-06-15T03:51:47.340Z,12.80
2018-06-15T03:53:40.090Z,13.40
2018-06-15T03:54:39.989Z,12.80
2018-06-15T03:56:32.845Z,12.10
2018-06-15T03:57:32.733Z,12.10
2018-06-15T03:59:26.039Z,12.60
2018-06-15T04:00:25.912Z,12.50
2018-06-15T04:02:18.801Z,13.30
2018-06-15T04:03:18.639Z,13.40
2018-06-15T04:05:11.406Z,11.80
2018-06-15T04:06:11.290Z,12.30
2018-06-15T04:08:04.154Z,12.80
2018-06-15T04:09:04.053Z,13.00
2018-06-15T04:10:56.893Z,12.60
2018-06-15T04:11:56.783Z,12.60
2018-06-15T04:13:49.642Z,12.60
2018-06-15T04:14:49.541Z,12.10
2018-06-15T04:16:42.811Z,10.60
2018-06-15T04:17:42.835Z,10.90
2018-06-15T04:19:35.555Z,11.30
2018-06-15T04:20:35.447Z,11.20
2018-06-15T04:22:28.326Z,10.20
2018-06-15T04:23:28.101Z,10.20
2018-06-15T04:25:20.852Z,9.40
2018-06-15T04:26:20.744Z,10.00
2018-06-15T04:28:13.603Z,9.90
2018-06-15T04:29:13.492Z,9.30
2018-06-15T04:31:06.238Z,9.70
2018-06-15T04:32:06.152Z,9.70
2018-06-15T04:33:59.425Z,9.70
2018-06-15T04:34:59.320Z,8.80
2018-06-15T04:36:52.668Z,8.40
2018-06-15T04:37:52.565Z,9.10
2018-06-15T04:39:45.409Z,8.70
2018-06-15T04:40:45.312Z,8.90
2018-06-15T04:42:38.079Z,6.80
2018-06-15T04:43:37.975Z,7.00
2018-06-15T04:45:30.799Z,7.30
2018-06-15T04:46:30.699Z,6.80
2018-06-15T04:48:23.561Z,6.70
2018-06-15T04:49:23.446Z,7.20
2018-06-15T04:51:16.199Z,7.10
2018-06-15T04:52:16.101Z,6.80
2018-06-15T04:54:08.870Z,7.20
2018-06-15T04:55:08.833Z,7.20
2018-06-15T04:57:02.536Z,7.10
2018-06-15T04:58:02.423Z,6.90
2018-06-15T04:59:55.301Z,6.60
2018-06-15T05:00:55.172Z,7.00
2018-06-15T05:02:48.027Z,6.30
2018-06-15T05:03:47.922Z,6.30
2018-06-15T05:05:40.784Z,6.60
2018-06-15T05:06:40.682Z,6.40
2018-06-15T05:08:33.536Z,6.00
2018-06-15T05:09:33.426Z,6.10
2018-06-15T05:11:26.287Z,5.80
2018-06-15T05:12:26.167Z,6.20
2018-06-15T05:14:18.912Z,6.10
2018-06-15T05:15:18.828Z,5.70
2018-06-15T05:17:11.670Z,5.60
2018-06-15T05:18:12.080Z,5.90
2018-06-15T05:20:04.229Z,5.50
2018-06-15T05:21:04.115Z,5.90
2018-06-15T05:22:56.953Z,5.80
2018-06-15T05:23:56.853Z,5.70
2018-06-15T05:25:49.632Z,5.50
2018-06-15T05:26:49.515Z,5.30
2018-06-15T05:28:42.780Z,4.90
2018-06-15T05:29:42.663Z,4.90
2018-06-15T05:31:35.528Z,5.40
2018-06-15T05:32:35.414Z,4.90
2018-06-15T05:34:28.171Z,4.80
2018-06-15T05:35:28.081Z,4.80
2018-06-15T05:37:20.826Z,5.30
2018-06-15T05:38:20.714Z,4.80
2018-06-15T05:40:13.593Z,5.10
2018-06-15T05:41:13.489Z,5.50
2018-06-15T05:43:06.325Z,4.40
2018-06-15T05:44:06.221Z,5.00
2018-06-15T05:45:59.106Z,4.60
2018-06-15T05:46:58.979Z,4.50
2018-06-15T05:48:51.827Z,4.90
2018-06-15T05:49:51.738Z,4.80
2018-06-15T05:51:45.514Z,4.80
2018-06-15T05:52:45.518Z,4.90
2018-06-15T05:54:38.241Z,5.20
2018-06-15T05:55:38.151Z,5.50
2018-06-15T05:57:30.897Z,5.30
2018-06-15T05:58:30.779Z,5.20
2018-06-15T06:00:24.571Z,4.80
2018-06-15T06:01:24.456Z,4.90
2018-06-15T06:03:17.812Z,5.30
2018-06-15T06:04:17.632Z,5.70
2018-06-15T06:06:10.506Z,5.10
2018-06-15T06:07:10.360Z,5.30
2018-06-15T06:09:03.202Z,5.40
2018-06-15T06:10:03.106Z,5.60
2018-06-15T06:11:55.882Z,5.50
2018-06-15T06:12:55.757Z,5.50
2018-06-15T06:14:48.631Z,6.30
2018-06-15T06:15:48.500Z,6.30
2018-06-15T06:17:41.377Z,6.60
2018-06-15T06:18:41.277Z,6.60
2018-06-15T06:20:34.139Z,6.80
2018-06-15T06:21:34.005Z,6.50
2018-06-15T06:23:27.298Z,6.60
2018-06-15T06:24:27.156Z,6.50
2018-06-15T06:26:19.948Z,6.40
2018-06-15T06:27:19.811Z,6.80
2018-06-15T06:29:12.554Z,7.00
2018-06-15T06:30:12.476Z,6.90
2018-06-15T06:32:05.323Z,7.30
2018-06-15T06:33:05.216Z,7.20
2018-06-15T06:34:58.056Z,7.00
2018-06-15T06:35:57.851Z,7.00
2018-06-15T06:37:50.636Z,7.40
2018-06-15T06:38:50.500Z,7.10
2018-06-15T06:40:43.362Z,7.30
2018-06-15T06:41:43.274Z,7.50
2018-06-15T06:43:36.137Z,8.40
2018-06-15T06:44:36.044Z,7.90
2018-06-15T06:46:28.847Z,8.80
2018-06-15T06:47:28.751Z,8.60
2018-06-15T06:49:22.106Z,9.10
2018-06-15T06:50:21.497Z,9.10
2018-06-15T06:52:14.353Z,9.50
2018-06-15T06:53:14.247Z,9.50
2018-06-15T06:55:07.096Z,9.90
2018-06-15T06:56:07.015Z,9.10
2018-06-15T06:57:59.766Z,9.50
2018-06-15T06:58:59.653Z,9.80
2018-06-15T07:00:52.388Z,11.00
2018-06-15T07:01:52.292Z,11.00
2018-06-15T07:03:45.164Z,11.00
2018-06-15T07:04:45.045Z,10.40
2018-06-15T07:06:38.290Z,11.60
2018-06-15T07:07:38.198Z,11.10
2018-06-15T07:09:31.085Z,12.10
2018-06-15T07:10:30.949Z,12.40
2018-06-15T07:12:23.711Z,11.50
2018-06-15T07:13:23.594Z,11.70
2018-06-15T07:15:16.352Z,8.40
2018-06-15T07:16:16.241Z,7.70
2018-06-15T07:18:08.995Z,7.20
2018-06-15T07:19:08.893Z,6.90
2018-06-15T07:21:01.756Z,6.30
2018-06-15T07:22:01.551Z,6.30
2018-06-15T07:23:54.291Z,8.10
2018-06-15T07:24:54.187Z,7.80
2018-06-15T07:26:46.974Z,8.40
2018-06-15T07:27:46.850Z,7.90
2018-06-15T07:29:39.699Z,7.90
2018-06-15T07:30:39.594Z,7.70
2018-06-15T07:32:32.441Z,7.10
2018-06-15T07:33:32.368Z,7.30
2018-06-15T07:35:25.216Z,7.00
2018-06-15T07:36:25.096Z,6.90
2018-06-15T07:38:17.822Z,6.80
2018-06-15T07:39:17.721Z,5.90
2018-06-15T07:41:10.489Z,5.80
2018-06-15T07:42:10.368Z,6.00
2018-06-15T07:44:03.634Z,6.30
2018-06-15T07:45:03.542Z,6.30
2018-06-15T07:46:56.426Z,5.70
2018-06-15T07:47:56.321Z,5.20
2018-06-15T07:49:49.042Z,5.20
2018-06-15T07:50:48.944Z,5.00
2018-06-15T07:52:41.778Z,4.90
2018-06-15T07:53:41.675Z,4.60
2018-06-15T07:55:34.548Z,4.60
2018-06-15T07:56:34.434Z,5.20
2018-06-15T07:58:27.287Z,4.80
2018-06-15T07:59:27.255Z,4.60
2018-06-15T08:01:19.930Z,4.60
2018-06-15T08:02:19.834Z,4.20
2018-06-15T08:04:12.582Z,4.50
2018-06-15T08:05:12.486Z,4.60
2018-06-15T08:07:05.346Z,3.50
2018-06-15T08:08:05.223Z,3.60
2018-06-15T08:09:58.082Z,3.60
2018-06-15T08:10:57.985Z,3.70
2018-06-15T08:12:50.837Z,3.60
2018-06-15T08:13:50.621Z,3.70
2018-06-15T08:15:43.378Z,3.30
2018-06-15T08:16:43.267Z,3.40
2018-06-15T08:18:36.125Z,3.70
2018-06-15T08:19:36.010Z,3.50
2018-06-15T08:21:28.777Z,3.50
2018-06-15T08:22:28.684Z,3.50
2018-06-15T08:24:22.061Z,3.50
2018-06-15T08:25:21.922Z,3.30
2018-06-15T08:27:14.768Z,3.50
2018-06-15T08:28:14.671Z,3.20
2018-06-15T08:30:07.540Z,3.20
2018-06-15T08:31:07.441Z,3.00
2018-06-15T08:33:00.261Z,2.40
2018-06-15T08:34:00.200Z,2.40
2018-06-15T08:35:53.062Z,2.50
2018-06-15T08:36:52.824Z,2.40
2018-06-15T08:38:45.663Z,2.40
2018-06-15T08:39:45.570Z,2.70
2018-06-15T08:41:38.335Z,2.80
2018-06-15T08:42:38.224Z,3.10
2018-06-15T08:44:31.080Z,3.70
2018-06-15T08:45:30.972Z,3.40
2018-06-15T08:47:23.853Z,3.20
2018-06-15T08:48:23.734Z,3.20
2018-06-15T08:50:16.582Z,3.10
2018-06-15T08:51:16.461Z,3.10
2018-06-15T08:53:09.321Z,3.30
2018-06-15T08:54:09.287Z,3.40
2018-06-15T08:56:02.073Z,3.40
2018-06-15T08:57:01.964Z,3.10
2018-06-15T08:58:54.809Z,3.30
2018-06-15T08:59:54.718Z,3.40
2018-06-15T09:01:47.486Z,3.00
2018-06-15T09:02:47.361Z,3.20
2018-06-15T09:04:40.231Z,3.10
2018-06-15T09:05:40.156Z,3.10
2018-06-15T09:07:32.967Z,3.60
2018-06-15T09:08:32.862Z,3.40
2018-06-15T09:10:25.708Z,3.10
2018-06-15T09:11:25.622Z,3.40
2018-06-15T09:13:18.482Z,3.10
2018-06-15T09:14:18.363Z,3.00
2018-06-15T09:16:11.221Z,3.30
2018-06-15T09:17:11.038Z,3.40
2018-06-15T09:19:03.891Z,3.30
2018-06-15T09:20:03.765Z,3.40
2018-06-15T09:21:56.606Z,3.40
2018-06-15T09:22:56.504Z,3.40
2018-06-15T09:24:49.767Z,3.40
2018-06-15T09:25:49.670Z,3.20
2018-06-15T09:27:42.509Z,3.30
2018-06-15T09:28:42.411Z,4.50
2018-06-15T09:30:35.280Z,6.50
2018-06-15T09:31:35.176Z,7.30
2018-06-15T09:33:28.023Z,8.10
2018-06-15T09:34:27.915Z,8.40
2018-06-15T09:36:20.781Z,7.60
2018-06-15T09:37:20.663Z,7.50
2018-06-15T09:39:13.404Z,8.10
2018-06-15T09:40:13.327Z,8.40
2018-06-15T09:42:06.185Z,7.90
2018-06-15T09:43:06.082Z,7.30
2018-06-15T09:44:58.928Z,6.70
2018-06-15T09:45:58.833Z,6.10
2018-06-15T09:47:51.653Z,7.10
2018-06-15T09:48:51.559Z,7.00
2018-06-15T09:50:44.423Z,7.60
2018-06-15T09:51:44.326Z,8.10
2018-06-15T09:53:37.197Z,7.50
2018-06-15T09:54:37.058Z,7.30
2018-06-15T09:56:29.936Z,8.80
2018-06-15T09:57:29.812Z,8.20
2018-06-15T09:59:22.657Z,16.40
2018-06-15T10:00:22.560Z,11.60
2018-06-15T10:02:15.421Z,7.40
2018-06-15T10:03:15.316Z,5.80
2018-06-15T10:05:08.150Z,6.00
2018-06-15T10:06:08.093Z,7.20
2018-06-15T10:08:00.925Z,5.50
2018-06-15T10:09:00.818Z,5.00
2018-06-15T10:10:54.093Z,5.10
2018-06-15T10:11:53.978Z,5.30
2018-06-15T10:13:46.827Z,5.00
2018-06-15T10:14:46.716Z,4.70
2018-06-15T10:16:39.608Z,5.00
2018-06-15T10:17:39.468Z,5.10
2018-06-15T10:19:32.338Z,5.40
2018-06-15T10:20:32.251Z,5.30
2018-06-15T10:22:25.094Z,5.10
2018-06-15T10:23:24.973Z,4.90
2018-06-15T10:25:17.804Z,5.50
2018-06-15T10:26:17.717Z,5.00
2018-06-15T10:28:10.571Z,5.70
2018-06-15T10:29:10.463Z,5.70
2018-06-15T10:31:03.307Z,6.00
2018-06-15T10:32:03.242Z,6.00
2018-06-15T10:33:56.091Z,6.40
2018-06-15T10:34:55.971Z,5.70
2018-06-15T10:36:48.828Z,5.70
2018-06-15T10:37:48.711Z,6.00
2018-06-15T10:39:41.577Z,6.00
2018-06-15T10:40:41.475Z,6.20
2018-06-15T10:42:34.302Z,6.10
2018-06-15T10:43:34.226Z,5.90
2018-06-15T10:45:27.083Z,5.60
2018-06-15T10:46:27.010Z,5.50
2018-06-15T10:48:19.854Z,4.70
2018-06-15T10:49:19.759Z,4.70
2018-06-15T10:51:12.577Z,5.00
2018-06-15T10:52:12.470Z,4.80
2018-06-15T10:54:05.320Z,4.90
2018-06-15T10:55:05.234Z,5.10
2018-06-15T10:56:58.121Z,5.50
2018-06-15T10:57:57.992Z,5.10
2018-06-15T10:59:51.357Z,5.80
2018-06-15T11:00:51.227Z,6.00
2018-06-15T11:02:44.070Z,5.70
2018-06-15T11:03:43.974Z,5.80
2018-06-15T11:05:36.823Z,5.20
2018-06-15T11:06:36.733Z,5.00
2018-06-15T11:08:29.576Z,4.90
2018-06-15T11:09:29.482Z,5.30
2018-06-15T11:11:22.316Z,5.50
2018-06-15T11:12:22.227Z,6.00
2018-06-15T11:14:15.102Z,5.40
2018-06-15T11:15:14.970Z,5.50
2018-06-15T11:17:07.815Z,5.10
2018-06-15T11:18:07.746Z,5.00
2018-06-15T11:20:02.015Z,4.60
2018-06-15T11:21:01.916Z,3.90
2018-06-15T11:22:54.767Z,2.40
2018-06-15T11:23:54.661Z,2.30
2018-06-15T11:25:47.498Z,3.30
2018-06-15T11:26:47.411Z,3.60
2018-06-15T11:28:40.270Z,4.40
2018-06-15T11:29:40.241Z,3.80
2018-06-15T11:31:33.008Z,3.40
2018-06-15T11:32:32.905Z,3.40
2018-06-15T11:34:25.764Z,3.10
2018-06-15T11:35:25.658Z,2.70
2018-06-15T11:37:18.509Z,2.60
2018-06-15T11:38:18.403Z,2.70
2018-06-15T11:40:11.267Z,2.40
2018-06-15T11:41:11.220Z,2.50
2018-06-15T11:43:04.158Z,2.30
2018-06-15T11:44:03.915Z,2.20
2018-06-15T11:45:57.175Z,2.50
2018-06-15T11:46:57.128Z,2.50
2018-06-15T11:48:50.080Z,2.30
2018-06-15T11:49:49.925Z,2.60
2018-06-15T11:51:42.809Z,3.10
2018-06-15T11:52:42.682Z,2.60
2018-06-15T11:54:35.504Z,2.70
2018-06-15T11:55:35.451Z,2.60
2018-06-15T11:57:28.329Z,2.20
2018-06-15T11:58:28.184Z,2.30
2018-06-15T12:00:21.034Z,2.50
2018-06-15T12:01:20.934Z,2.60
2018-06-15T12:03:13.755Z,2.70
2018-06-15T12:04:13.682Z,2.40
2018-06-15T12:06:06.524Z,2.30
2018-06-15T12:07:06.647Z,2.20
2018-06-15T12:08:59.280Z,2.20
2018-06-15T12:09:59.171Z,2.20
2018-06-15T12:11:52.045Z,2.50
2018-06-15T12:12:51.927Z,2.30
2018-06-15T12:14:44.904Z,2.30
2018-06-15T12:15:44.689Z,2.30
2018-06-15T12:17:37.529Z,2.20
2018-06-15T12:18:37.426Z,2.30
2018-06-15T12:20:30.303Z,2.20
2018-06-15T12:21:30.203Z,2.30
2018-06-15T12:23:23.025Z,2.50
2018-06-15T12:24:22.915Z,2.40
2018-06-15T12:26:15.817Z,2.70
2018-06-15T12:27:15.672Z,2.30
2018-06-15T12:29:08.514Z,2.50
2018-06-15T12:30:08.413Z,2.40
2018-06-15T12:32:01.284Z,2.40
2018-06-15T12:33:01.173Z,2.30
2018-06-15T12:34:54.080Z,2.10
2018-06-15T12:35:53.944Z,2.30
2018-06-15T12:37:46.779Z,2.00
2018-06-15T12:38:46.668Z,2.00
2018-06-15T12:40:39.530Z,2.20
2018-06-15T12:41:39.447Z,2.00
2018-06-15T12:43:32.269Z,1.90
2018-06-15T12:44:32.317Z,1.90
2018-06-15T12:46:24.995Z,1.90
2018-06-15T12:47:24.915Z,2.10
2018-06-15T12:49:17.762Z,1.90
2018-06-15T12:50:17.664Z,1.90
2018-06-15T12:52:10.487Z,1.90
2018-06-15T12:53:10.409Z,2.00
2018-06-15T12:55:03.265Z,1.90
2018-06-15T12:56:03.168Z,2.30
2018-06-15T12:57:56.013Z,2.10
2018-06-15T12:58:55.925Z,2.00
2018-06-15T13:00:48.768Z,2.00
2018-06-15T13:01:48.669Z,1.90
2018-06-15T13:03:41.936Z,2.10
2018-06-15T13:04:41.831Z,1.90
2018-06-15T13:06:34.670Z,1.90
2018-06-15T13:07:34.577Z,2.10
2018-06-15T13:09:27.828Z,2.40
2018-06-15T13:10:27.740Z,2.40
2018-06-15T13:12:21.088Z,2.30
2018-06-15T13:13:21.001Z,2.30
2018-06-15T13:15:13.817Z,4.80
2018-06-15T13:16:13.741Z,5.40
2018-06-15T13:18:06.592Z,6.30
2018-06-15T13:19:06.484Z,6.60
2018-06-15T13:20:59.327Z,6.90
2018-06-15T13:21:59.237Z,6.80
2018-06-15T13:23:52.144Z,6.50
2018-06-15T13:24:52.029Z,6.60
2018-06-15T13:26:44.855Z,6.40
2018-06-15T13:27:44.740Z,6.10
2018-06-15T13:29:37.644Z,6.90
2018-06-15T13:30:37.498Z,6.80
2018-06-15T13:32:30.352Z,7.30
2018-06-15T13:33:30.244Z,7.50
2018-06-15T13:35:23.611Z,7.30
2018-06-15T13:36:22.991Z,7.70
2018-06-15T13:38:15.833Z,8.00
2018-06-15T13:39:15.751Z,8.10
2018-06-15T13:41:08.603Z,7.30
2018-06-15T13:42:08.488Z,6.60
2018-06-15T13:44:02.368Z,6.70
2018-06-15T13:45:03.112Z,6.20
2018-06-15T13:46:55.438Z,6.70
2018-06-15T13:47:55.999Z,6.20
2018-06-15T13:49:47.863Z,6.70
2018-06-15T13:50:49.110Z,6.60
2018-06-15T13:52:43.029Z,6.80
2018-06-15T13:53:42.169Z,6.70
2018-06-15T13:55:34.881Z,6.30
2018-06-15T13:56:34.801Z,6.40
2018-06-15T13:58:27.643Z,5.40
2018-06-15T13:59:27.532Z,5.00
2018-06-15T14:01:20.388Z,5.70
2018-06-15T14:02:20.279Z,5.10
2018-06-15T14:04:13.670Z,6.60
2018-06-15T14:05:13.036Z,5.90
2018-06-15T14:07:05.959Z,5.40
2018-06-15T14:08:05.779Z,5.00
2018-06-15T14:09:58.644Z,4.90
2018-06-15T14:10:58.561Z,4.60
2018-06-15T14:12:51.442Z,5.00
2018-06-15T14:13:51.307Z,5.70
2018-06-15T14:15:44.222Z,5.10
2018-06-15T14:16:44.027Z,4.90
2018-06-15T14:18:37.008Z,4.90
2018-06-15T14:19:36.812Z,4.60
2018-06-15T14:21:29.682Z,4.80
2018-06-15T14:22:29.552Z,4.60
2018-06-15T14:24:22.958Z,4.60
2018-06-15T14:25:22.811Z,4.60
2018-06-15T14:27:16.147Z,3.80
2018-06-15T14:28:16.090Z,4.10
2018-06-15T14:30:08.911Z,3.90
2018-06-15T14:31:08.872Z,4.10
2018-06-15T14:33:01.724Z,3.80
2018-06-15T14:34:01.576Z,4.80
2018-06-15T14:35:54.934Z,4.10
2018-06-15T14:36:54.319Z,4.60
2018-06-15T14:38:47.178Z,5.20
2018-06-15T14:39:47.068Z,4.50
2018-06-15T14:41:39.899Z,4.70
2018-06-15T14:42:39.832Z,4.60
2018-06-15T14:44:32.658Z,4.90
2018-06-15T14:45:32.565Z,5.00
2018-06-15T14:47:25.409Z,5.10
2018-06-15T14:48:25.324Z,5.20
2018-06-15T14:50:18.680Z,5.00
2018-06-15T14:51:18.570Z,5.00
2018-06-15T14:53:11.574Z,5.00
2018-06-15T14:54:11.314Z,4.20
2018-06-15T14:56:04.179Z,4.70
2018-06-15T14:57:04.072Z,4.90
2018-06-15T14:58:56.917Z,4.80
2018-06-15T14:59:56.826Z,5.00
2018-06-15T15:01:49.670Z,4.70
2018-06-15T15:02:49.582Z,4.50
2018-06-15T15:04:42.436Z,4.30
2018-06-15T15:05:42.321Z,4.20
2018-06-15T15:07:35.206Z,4.60
2018-06-15T15:08:35.075Z,4.70
2018-06-15T15:10:27.909Z,4.60
2018-06-15T15:11:27.818Z,4.60
2018-06-15T15:13:21.190Z,4.30
2018-06-15T15:14:20.574Z,4.10
2018-06-15T15:16:13.450Z,4.20
2018-06-15T15:17:13.326Z,3.90
2018-06-15T15:19:06.161Z,4.30
2018-06-15T15:20:06.081Z,4.00
2018-06-15T15:21:58.895Z,4.60
2018-06-15T15:22:58.833Z,4.60
2018-06-15T15:24:51.717Z,4.70
2018-06-15T15:25:51.583Z,4.80
2018-06-15T15:27:44.409Z,4.40
2018-06-15T15:28:44.387Z,4.80
2018-06-15T15:30:37.353Z,4.70
2018-06-15T15:31:37.091Z,4.40
2018-06-15T15:33:29.970Z,4.70
2018-06-15T15:34:29.843Z,4.40
2018-06-15T15:36:23.206Z,4.80
2018-06-15T15:37:23.592Z,4.40
2018-06-15T15:39:15.948Z,4.40
2018-06-15T15:40:15.852Z,4.50
2018-06-15T15:42:08.694Z,4.50
2018-06-15T15:43:08.588Z,4.80
2018-06-15T15:45:01.471Z,4.40
2018-06-15T15:46:01.345Z,4.00
2018-06-15T15:47:54.178Z,4.30
2018-06-15T15:48:54.072Z,4.60
2018-06-15T15:50:46.919Z,4.80
2018-06-15T15:51:46.823Z,4.80
2018-06-15T15:53:39.682Z,4.70
2018-06-15T15:54:39.570Z,4.90
2018-06-15T15:56:32.438Z,4.60
2018-06-15T15:57:32.315Z,4.20
2018-06-15T15:59:25.169Z,3.80
2018-06-15T16:00:25.066Z,3.80
2018-06-15T16:02:18.832Z,3.90
2018-06-15T16:03:18.735Z,3.90
2018-06-15T16:05:11.592Z,3.70
2018-06-15T16:06:11.485Z,3.60
2018-06-15T16:08:04.355Z,3.40
2018-06-15T16:09:04.250Z,3.40
2018-06-15T16:10:57.081Z,3.90
2018-06-15T16:11:56.991Z,3.70
2018-06-15T16:13:49.844Z,3.60
2018-06-15T16:14:49.744Z,3.80
2018-06-15T16:16:42.617Z,3.80
2018-06-15T16:17:42.484Z,3.60
2018-06-15T16:19:35.390Z,3.50
2018-06-15T16:20:35.261Z,3.50
2018-06-15T16:22:28.081Z,3.70
2018-06-15T16:23:27.989Z,3.80
2018-06-15T16:25:21.355Z,3.90
2018-06-15T16:26:21.252Z,4.30
2018-06-15T16:28:14.110Z,4.20
2018-06-15T16:29:14.004Z,4.00
2018-06-15T16:31:06.840Z,3.30
2018-06-15T16:32:06.748Z,3.60
2018-06-15T16:33:59.611Z,3.60
2018-06-15T16:34:59.510Z,3.60
2018-06-15T16:36:52.329Z,3.30
2018-06-15T16:37:52.286Z,3.50
2018-06-15T16:39:45.131Z,3.40
2018-06-15T16:40:45.048Z,3.20
2018-06-15T16:42:37.832Z,3.10
2018-06-15T16:43:37.771Z,3.10
2018-06-15T16:45:30.595Z,3.50
2018-06-15T16:46:30.516Z,3.80
2018-06-15T16:48:23.378Z,3.50
2018-06-15T16:49:23.247Z,3.50
2018-06-15T16:51:16.090Z,3.10
2018-06-15T16:52:15.994Z,3.10
2018-06-15T16:54:08.860Z,3.40
2018-06-15T16:55:08.761Z,3.80
2018-06-15T16:57:01.575Z,3.40
2018-06-15T16:58:01.509Z,3.50
2018-06-15T16:59:54.381Z,3.10
2018-06-15T17:00:54.259Z,3.30
2018-06-15T17:02:47.113Z,3.30
2018-06-15T17:03:46.994Z,3.40
2018-06-15T17:05:39.877Z,3.20
2018-06-15T17:06:39.750Z,3.50
2018-06-15T17:08:32.611Z,3.30
2018-06-15T17:09:32.589Z,3.30
2018-06-15T17:11:25.323Z,3.20
2018-06-15T17:12:25.255Z,3.30
2018-06-15T17:14:18.094Z,3.30
2018-06-15T17:15:18.023Z,3.10
2018-06-15T17:17:10.828Z,2.90
2018-06-15T17:18:10.824Z,2.80
2018-06-15T17:20:03.653Z,2.90
2018-06-15T17:21:03.538Z,2.90
2018-06-15T17:22:56.361Z,2.90
2018-06-15T17:23:56.263Z,3.00
2018-06-15T17:25:49.618Z,3.40
2018-06-15T17:26:49.544Z,3.50
2018-06-15T17:28:42.369Z,3.20
2018-06-15T17:29:42.270Z,3.30
2018-06-15T17:31:35.091Z,3.90
2018-06-15T17:32:35.003Z,3.70
2018-06-15T17:34:28.915Z,3.20
2018-06-15T17:35:28.797Z,3.30
2018-06-15T17:37:21.610Z,3.50
2018-06-15T17:38:21.529Z,3.30
2018-06-15T17:40:16.318Z,3.30
2018-06-15T17:41:16.217Z,3.30
2018-06-15T17:43:09.974Z,3.80
2018-06-15T17:44:09.884Z,3.40
2018-06-15T17:46:02.735Z,3.30
2018-06-15T17:47:02.661Z,3.10
2018-06-15T17:48:55.488Z,3.30
2018-06-15T17:49:55.401Z,3.40
2018-06-15T17:51:48.258Z,3.50
2018-06-15T17:52:48.149Z,3.50
2018-06-15T17:54:41.035Z,3.40
2018-06-15T17:55:40.904Z,3.50
2018-06-15T17:57:33.722Z,3.40
2018-06-15T17:58:33.645Z,3.40
2018-06-15T18:00:26.498Z,3.30
2018-06-15T18:01:26.394Z,3.40
2018-06-15T18:03:19.247Z,3.40
2018-06-15T18:04:19.192Z,3.20
2018-06-15T18:06:11.986Z,3.70
2018-06-15T18:07:11.957Z,3.50
2018-06-15T18:09:04.744Z,3.70
2018-06-15T18:10:04.645Z,3.30
2018-06-15T18:11:57.491Z,3.10
2018-06-15T18:12:57.414Z,3.20
2018-06-15T18:14:50.254Z,3.10
2018-06-15T18:15:50.133Z,3.50
2018-06-15T18:17:43.525Z,3.30
2018-06-15T18:18:42.924Z,3.30
2018-06-15T18:20:35.743Z,3.50
2018-06-15T18:21:35.648Z,3.30
2018-06-15T18:23:28.470Z,3.60
2018-06-15T18:24:28.385Z,3.60
2018-06-15T18:26:21.236Z,3.80
2018-06-15T18:27:21.154Z,3.70
2018-06-15T18:29:14.007Z,3.40
2018-06-15T18:30:13.882Z,3.60
2018-06-15T18:32:07.148Z,3.50
2018-06-15T18:33:07.034Z,3.50
2018-06-15T18:34:59.911Z,3.60
2018-06-15T18:35:59.785Z,3.30
2018-06-15T18:37:52.619Z,3.20
2018-06-15T18:38:52.535Z,3.10
2018-06-15T18:40:45.405Z,3.30
2018-06-15T18:41:45.295Z,3.10
2018-06-15T18:43:38.669Z,3.20
2018-06-15T18:44:38.041Z,3.40
2018-06-15T18:46:30.894Z,3.00
2018-06-15T18:47:30.787Z,3.20
2018-06-15T18:49:23.634Z,3.20
2018-06-15T18:50:23.545Z,3.20
2018-06-15T18:52:16.369Z,3.10
2018-06-15T18:53:16.284Z,3.10
2018-06-15T18:55:09.658Z,3.20
2018-06-15T18:56:09.560Z,3.20
2018-06-15T18:58:02.528Z,3.20
2018-06-15T18:59:02.308Z,3.00
2018-06-15T19:00:55.190Z,3.30
2018-06-15T19:01:55.054Z,3.40
2018-06-15T19:03:47.919Z,3.30
2018-06-15T19:04:47.808Z,3.30
2018-06-15T19:06:41.083Z,3.30